sensor_id;sensor_type;location;lat;lon;timestamp;P1;durP1;ratioP1;P2;durP2;ratioP2
48588;SDS011;34369;51.174;6.738;2022-10-19T00:00:25;33.50;;;31.23;;
48588;SDS011;34369;51.174;6.738;2022-10-19T00:02:58;32.13;;;30.00;;
48588;SDS011;34369;51.174;6.738;2022-10-19T00:05:31;32.80;;;30.20;;
48588;SDS011;34369;51.174;6.738;2022-10-19T00:08:03;32.97;;;30.67;;
48588;SDS011;34369;51.174;6.738;2022-10-19T00:10:38;32.27;;;30.23;;
48588;SDS011;34369;51.174;6.738;2022-10-19T00:13:11;32.55;;;30.45;;
48588;SDS011;34369;51.174;6.738;2022-10-19T00:15:43;32.50;;;30.30;;
48588;SDS011;34369;51.174;6.738;2022-10-19T00:18:16;30.77;;;28.67;;
48588;SDS011;34369;51.174;6.738;2022-10-19T00:20:49;31.47;;;29.20;;
48588;SDS011;34369;51.174;6.738;2022-10-19T00:23:21;29.30;;;27.20;;
48588;SDS011;34369;51.174;6.738;2022-10-19T00:25:54;32.03;;;29.73;;
48588;SDS011;34369;51.174;6.738;2022-10-19T00:28:26;32.50;;;30.40;;
48588;SDS011;34369;51.174;6.738;2022-10-19T00:31:01;31.20;;;29.10;;
48588;SDS011;34369;51.174;6.738;2022-10-19T00:33:34;33.00;;;30.70;;
48588;SDS011;34369;51.174;6.738;2022-10-19T00:36:14;32.93;;;30.83;;
48588;SDS011;34369;51.174;6.738;2022-10-19T00:38:48;32.83;;;30.57;;
48588;SDS011;34369;51.174;6.738;2022-10-19T00:41:21;32.93;;;30.83;;
48588;SDS011;34369;51.174;6.738;2022-10-19T00:43:57;32.85;;;30.45;;
48588;SDS011;34369;51.174;6.738;2022-10-19T00:46:32;32.10;;;29.83;;
48588;SDS011;34369;51.174;6.738;2022-10-19T00:49:07;30.53;;;28.43;;
48588;SDS011;34369;51.174;6.738;2022-10-19T00:51:45;31.13;;;28.98;;
48588;SDS011;34369;51.174;6.738;2022-10-19T00:54:19;41.73;;;32.07;;
48588;SDS011;34369;51.174;6.738;2022-10-19T00:56:53;32.20;;;29.90;;
48588;SDS011;34369;51.174;6.738;2022-10-19T00:59:27;31.20;;;29.00;;
48588;SDS011;34369;51.174;6.738;2022-10-19T01:02:02;31.17;;;29.07;;
48588;SDS011;34369;51.174;6.738;2022-10-19T01:04:36;34.10;;;31.33;;
48588;SDS011;34369;51.174;6.738;2022-10-19T01:07:16;32.43;;;30.30;;
48588;SDS011;34369;51.174;6.738;2022-10-19T01:09:48;32.47;;;30.23;;
48588;SDS011;34369;51.174;6.738;2022-10-19T01:12:24;34.23;;;31.47;;
48588;SDS011;34369;51.174;6.738;2022-10-19T01:15:26;31.87;;;29.47;;
48588;SDS011;34369;51.174;6.738;2022-10-19T01:18:06;31.13;;;29.00;;
48588;SDS011;34369;51.174;6.738;2022-10-19T01:24:15;32.13;;;29.93;;
48588;SDS011;34369;51.174;6.738;2022-10-19T01:30:20;32.77;;;30.67;;
48588;SDS011;34369;51.174;6.738;2022-10-19T01:33:05;33.07;;;30.87;;
48588;SDS011;34369;51.174;6.738;2022-10-19T01:35:51;33.27;;;30.93;;
48588;SDS011;34369;51.174;6.738;2022-10-19T01:38:34;33.03;;;30.70;;
48588;SDS011;34369;51.174;6.738;2022-10-19T01:41:14;35.33;;;32.83;;
48588;SDS011;34369;51.174;6.738;2022-10-19T01:43:49;34.67;;;32.28;;
48588;SDS011;34369;51.174;6.738;2022-10-19T01:46:33;32.10;;;30.00;;
48588;SDS011;34369;51.174;6.738;2022-10-19T01:49:10;33.63;;;31.37;;
48588;SDS011;34369;51.174;6.738;2022-10-19T01:54:20;34.30;;;32.00;;
48588;SDS011;34369;51.174;6.738;2022-10-19T01:56:55;35.83;;;33.33;;
48588;SDS011;34369;51.174;6.738;2022-10-19T01:59:30;34.87;;;32.17;;
48588;SDS011;34369;51.174;6.738;2022-10-19T02:02:05;35.30;;;32.90;;
48588;SDS011;34369;51.174;6.738;2022-10-19T02:04:39;35.27;;;32.37;;
48588;SDS011;34369;51.174;6.738;2022-10-19T02:07:12;33.43;;;30.77;;
48588;SDS011;34369;51.174;6.738;2022-10-19T02:09:44;33.50;;;31.17;;
48588;SDS011;34369;51.174;6.738;2022-10-19T02:12:16;35.70;;;33.30;;
48588;SDS011;34369;51.174;6.738;2022-10-19T02:14:52;33.50;;;31.23;;
48588;SDS011;34369;51.174;6.738;2022-10-19T02:17:29;32.47;;;30.27;;
48588;SDS011;34369;51.174;6.738;2022-10-19T02:20:06;33.43;;;31.23;;
48588;SDS011;34369;51.174;6.738;2022-10-19T02:22:38;33.53;;;31.17;;
48588;SDS011;34369;51.174;6.738;2022-10-19T02:25:11;34.40;;;32.10;;
48588;SDS011;34369;51.174;6.738;2022-10-19T02:27:43;33.40;;;31.00;;
48588;SDS011;34369;51.174;6.738;2022-10-19T02:30:16;34.70;;;32.10;;
48588;SDS011;34369;51.174;6.738;2022-10-19T02:32:52;34.43;;;30.73;;
48588;SDS011;34369;51.174;6.738;2022-10-19T02:35:23;34.50;;;32.00;;
48588;SDS011;34369;51.174;6.738;2022-10-19T02:37:56;36.87;;;34.00;;
48588;SDS011;34369;51.174;6.738;2022-10-19T02:40:32;32.80;;;30.50;;
48588;SDS011;34369;51.174;6.738;2022-10-19T02:43:11;34.37;;;31.97;;
48588;SDS011;34369;51.174;6.738;2022-10-19T02:45:49;35.83;;;33.37;;
48588;SDS011;34369;51.174;6.738;2022-10-19T02:48:31;34.80;;;32.50;;
48588;SDS011;34369;51.174;6.738;2022-10-19T02:51:05;37.27;;;34.73;;
48588;SDS011;34369;51.174;6.738;2022-10-19T02:53:37;34.97;;;32.57;;
48588;SDS011;34369;51.174;6.738;2022-10-19T02:56:09;36.13;;;33.73;;
48588;SDS011;34369;51.174;6.738;2022-10-19T02:58:41;35.40;;;33.03;;
48588;SDS011;34369;51.174;6.738;2022-10-19T03:01:12;35.60;;;33.20;;
48588;SDS011;34369;51.174;6.738;2022-10-19T03:03:46;36.50;;;34.00;;
48588;SDS011;34369;51.174;6.738;2022-10-19T03:06:18;34.17;;;31.87;;
48588;SDS011;34369;51.174;6.738;2022-10-19T03:08:50;32.37;;;30.27;;
48588;SDS011;34369;51.174;6.738;2022-10-19T03:11:22;37.67;;;34.73;;
48588;SDS011;34369;51.174;6.738;2022-10-19T03:13:54;35.53;;;32.53;;
48588;SDS011;34369;51.174;6.738;2022-10-19T03:16:26;33.13;;;30.93;;
48588;SDS011;34369;51.174;6.738;2022-10-19T03:18:59;32.97;;;30.77;;
48588;SDS011;34369;51.174;6.738;2022-10-19T03:21:32;34.90;;;32.60;;
48588;SDS011;34369;51.174;6.738;2022-10-19T03:24:04;33.80;;;31.50;;
48588;SDS011;34369;51.174;6.738;2022-10-19T03:26:36;33.33;;;31.10;;
48588;SDS011;34369;51.174;6.738;2022-10-19T03:29:08;34.90;;;32.60;;
48588;SDS011;34369;51.174;6.738;2022-10-19T03:31:40;34.00;;;31.80;;
48588;SDS011;34369;51.174;6.738;2022-10-19T03:34:14;34.20;;;31.90;;
48588;SDS011;34369;51.174;6.738;2022-10-19T03:36:45;33.37;;;31.17;;
48588;SDS011;34369;51.174;6.738;2022-10-19T03:39:17;35.57;;;33.03;;
48588;SDS011;34369;51.174;6.738;2022-10-19T03:41:49;34.17;;;31.97;;
48588;SDS011;34369;51.174;6.738;2022-10-19T03:44:21;35.07;;;32.77;;
48588;SDS011;34369;51.174;6.738;2022-10-19T03:46:53;33.43;;;31.23;;
48588;SDS011;34369;51.174;6.738;2022-10-19T03:49:26;33.33;;;31.13;;
48588;SDS011;34369;51.174;6.738;2022-10-19T03:51:58;33.73;;;31.43;;
48588;SDS011;34369;51.174;6.738;2022-10-19T03:54:30;34.77;;;32.53;;
48588;SDS011;34369;51.174;6.738;2022-10-19T03:57:02;35.07;;;32.00;;
48588;SDS011;34369;51.174;6.738;2022-10-19T03:59:34;33.40;;;31.00;;
48588;SDS011;34369;51.174;6.738;2022-10-19T04:02:06;35.83;;;33.50;;
48588;SDS011;34369;51.174;6.738;2022-10-19T04:04:39;35.33;;;33.03;;
48588;SDS011;34369;51.174;6.738;2022-10-19T04:07:11;34.67;;;32.47;;
48588;SDS011;34369;51.174;6.738;2022-10-19T04:09:43;34.43;;;32.13;;
48588;SDS011;34369;51.174;6.738;2022-10-19T04:12:15;35.83;;;33.47;;
48588;SDS011;34369;51.174;6.738;2022-10-19T04:14:47;35.60;;;33.20;;
48588;SDS011;34369;51.174;6.738;2022-10-19T04:17:19;38.17;;;35.57;;
48588;SDS011;34369;51.174;6.738;2022-10-19T04:19:52;32.27;;;29.87;;
48588;SDS011;34369;51.174;6.738;2022-10-19T04:22:24;36.27;;;33.90;;
48588;SDS011;34369;51.174;6.738;2022-10-19T04:24:55;34.03;;;31.70;;
48588;SDS011;34369;51.174;6.738;2022-10-19T04:27:27;35.77;;;33.10;;
48588;SDS011;34369;51.174;6.738;2022-10-19T04:29:59;35.40;;;32.50;;
48588;SDS011;34369;51.174;6.738;2022-10-19T04:32:31;32.47;;;29.97;;
48588;SDS011;34369;51.174;6.738;2022-10-19T04:35:05;37.50;;;32.87;;
48588;SDS011;34369;51.174;6.738;2022-10-19T04:37:37;34.00;;;31.13;;
48588;SDS011;34369;51.174;6.738;2022-10-19T04:40:10;35.50;;;32.93;;
48588;SDS011;34369;51.174;6.738;2022-10-19T04:42:42;41.53;;;33.87;;
48588;SDS011;34369;51.174;6.738;2022-10-19T04:45:14;37.67;;;34.33;;
48588;SDS011;34369;51.174;6.738;2022-10-19T04:47:46;35.60;;;32.63;;
48588;SDS011;34369;51.174;6.738;2022-10-19T04:50:19;36.23;;;33.60;;
48588;SDS011;34369;51.174;6.738;2022-10-19T04:52:51;36.87;;;33.90;;
48588;SDS011;34369;51.174;6.738;2022-10-19T04:55:23;35.77;;;32.97;;
48588;SDS011;34369;51.174;6.738;2022-10-19T04:57:55;34.63;;;32.43;;
48588;SDS011;34369;51.174;6.738;2022-10-19T05:00:27;36.80;;;34.37;;
48588;SDS011;34369;51.174;6.738;2022-10-19T05:02:59;37.90;;;35.40;;
48588;SDS011;34369;51.174;6.738;2022-10-19T05:05:32;36.27;;;33.97;;
48588;SDS011;34369;51.174;6.738;2022-10-19T05:08:04;36.20;;;33.90;;
48588;SDS011;34369;51.174;6.738;2022-10-19T05:10:36;35.60;;;33.20;;
48588;SDS011;34369;51.174;6.738;2022-10-19T05:13:09;35.67;;;33.17;;
48588;SDS011;34369;51.174;6.738;2022-10-19T05:15:40;33.97;;;31.67;;
48588;SDS011;34369;51.174;6.738;2022-10-19T05:18:12;35.23;;;32.93;;
48588;SDS011;34369;51.174;6.738;2022-10-19T05:20:45;36.43;;;33.83;;
48588;SDS011;34369;51.174;6.738;2022-10-19T05:23:17;34.10;;;31.80;;
48588;SDS011;34369;51.174;6.738;2022-10-19T05:25:52;37.30;;;34.70;;
48588;SDS011;34369;51.174;6.738;2022-10-19T05:28:31;35.27;;;32.77;;
48588;SDS011;34369;51.174;6.738;2022-10-19T05:31:04;34.50;;;32.00;;
48588;SDS011;34369;51.174;6.738;2022-10-19T05:33:39;35.37;;;32.50;;
48588;SDS011;34369;51.174;6.738;2022-10-19T05:36:14;35.13;;;32.73;;
48588;SDS011;34369;51.174;6.738;2022-10-19T05:38:49;38.50;;;35.40;;
48588;SDS011;34369;51.174;6.738;2022-10-19T05:41:22;35.10;;;32.53;;
48588;SDS011;34369;51.174;6.738;2022-10-19T05:43:56;36.33;;;33.70;;
48588;SDS011;34369;51.174;6.738;2022-10-19T05:46:30;36.90;;;34.00;;
48588;SDS011;34369;51.174;6.738;2022-10-19T05:49:03;36.27;;;33.67;;
48588;SDS011;34369;51.174;6.738;2022-10-19T05:51:36;37.10;;;34.30;;
48588;SDS011;34369;51.174;6.738;2022-10-19T05:54:09;37.27;;;34.50;;
48588;SDS011;34369;51.174;6.738;2022-10-19T05:56:42;37.43;;;34.73;;
48588;SDS011;34369;51.174;6.738;2022-10-19T05:59:14;37.97;;;35.17;;
48588;SDS011;34369;51.174;6.738;2022-10-19T06:01:49;37.10;;;33.83;;
48588;SDS011;34369;51.174;6.738;2022-10-19T06:04:21;36.90;;;34.10;;
48588;SDS011;34369;51.174;6.738;2022-10-19T06:06:54;35.83;;;33.23;;
48588;SDS011;34369;51.174;6.738;2022-10-19T06:09:26;36.13;;;33.53;;
48588;SDS011;34369;51.174;6.738;2022-10-19T06:11:58;37.63;;;34.53;;
48588;SDS011;34369;51.174;6.738;2022-10-19T06:14:30;36.03;;;33.43;;
48588;SDS011;34369;51.174;6.738;2022-10-19T06:17:01;36.63;;;33.83;;
48588;SDS011;34369;51.174;6.738;2022-10-19T06:19:35;39.10;;;36.03;;
48588;SDS011;34369;51.174;6.738;2022-10-19T06:22:09;39.73;;;36.57;;
48588;SDS011;34369;51.174;6.738;2022-10-19T06:24:41;38.20;;;35.10;;
48588;SDS011;34369;51.174;6.738;2022-10-19T06:27:13;39.43;;;36.40;;
48588;SDS011;34369;51.174;6.738;2022-10-19T06:29:45;40.77;;;37.60;;
48588;SDS011;34369;51.174;6.738;2022-10-19T06:32:17;39.33;;;35.70;;
48588;SDS011;34369;51.174;6.738;2022-10-19T06:34:49;38.33;;;35.07;;
48588;SDS011;34369;51.174;6.738;2022-10-19T06:37:23;41.20;;;38.23;;
48588;SDS011;34369;51.174;6.738;2022-10-19T06:39:55;38.57;;;35.40;;
48588;SDS011;34369;51.174;6.738;2022-10-19T06:42:27;36.87;;;34.03;;
48588;SDS011;34369;51.174;6.738;2022-10-19T06:44:59;37.40;;;34.50;;
48588;SDS011;34369;51.174;6.738;2022-10-19T06:47:31;37.90;;;34.97;;
48588;SDS011;34369;51.174;6.738;2022-10-19T06:50:04;38.80;;;35.63;;
48588;SDS011;34369;51.174;6.738;2022-10-19T06:52:39;36.17;;;33.53;;
48588;SDS011;34369;51.174;6.738;2022-10-19T06:55:11;36.33;;;33.50;;
48588;SDS011;34369;51.174;6.738;2022-10-19T06:57:43;37.80;;;35.00;;
48588;SDS011;34369;51.174;6.738;2022-10-19T07:00:15;37.43;;;34.43;;
48588;SDS011;34369;51.174;6.738;2022-10-19T07:02:47;38.83;;;35.83;;
48588;SDS011;34369;51.174;6.738;2022-10-19T07:05:19;36.00;;;33.20;;
48588;SDS011;34369;51.174;6.738;2022-10-19T07:07:53;34.80;;;32.10;;
48588;SDS011;34369;51.174;6.738;2022-10-19T07:10:25;34.87;;;32.07;;
48588;SDS011;34369;51.174;6.738;2022-10-19T07:12:56;31.70;;;29.30;;
48588;SDS011;34369;51.174;6.738;2022-10-19T07:15:28;34.10;;;31.30;;
48588;SDS011;34369;51.174;6.738;2022-10-19T07:18:00;34.10;;;31.53;;
48588;SDS011;34369;51.174;6.738;2022-10-19T07:20:32;34.30;;;31.70;;
48588;SDS011;34369;51.174;6.738;2022-10-19T07:23:06;35.37;;;32.53;;
48588;SDS011;34369;51.174;6.738;2022-10-19T07:25:38;33.77;;;31.13;;
48588;SDS011;34369;51.174;6.738;2022-10-19T07:28:09;32.77;;;30.23;;
48588;SDS011;34369;51.174;6.738;2022-10-19T07:30:41;32.37;;;29.90;;
48588;SDS011;34369;51.174;6.738;2022-10-19T07:33:14;31.25;;;28.60;;
48588;SDS011;34369;51.174;6.738;2022-10-19T07:35:46;32.47;;;29.77;;
48588;SDS011;34369;51.174;6.738;2022-10-19T07:38:20;32.90;;;30.10;;
48588;SDS011;34369;51.174;6.738;2022-10-19T07:40:58;32.17;;;29.30;;
48588;SDS011;34369;51.174;6.738;2022-10-19T07:43:32;32.97;;;30.13;;
48588;SDS011;34369;51.174;6.738;2022-10-19T07:46:05;31.55;;;29.10;;
48588;SDS011;34369;51.174;6.738;2022-10-19T07:48:39;31.80;;;29.05;;
48588;SDS011;34369;51.174;6.738;2022-10-19T07:51:12;30.63;;;28.00;;
48588;SDS011;34369;51.174;6.738;2022-10-19T07:53:48;31.65;;;29.17;;
48588;SDS011;34369;51.174;6.738;2022-10-19T07:56:21;31.33;;;28.92;;
48588;SDS011;34369;51.174;6.738;2022-10-19T08:24:51;26.13;;;24.02;;
48588;SDS011;34369;51.174;6.738;2022-10-19T08:28:12;26.65;;;24.38;;
48588;SDS011;34369;51.174;6.738;2022-10-19T08:35:59;25.88;;;23.73;;
48588;SDS011;34369;51.174;6.738;2022-10-19T08:42:30;27.25;;;24.95;;
48588;SDS011;34369;51.174;6.738;2022-10-19T08:45:46;26.52;;;24.40;;
48588;SDS011;34369;51.174;6.738;2022-10-19T08:53:09;25.67;;;23.48;;
48588;SDS011;34369;51.174;6.738;2022-10-19T09:21:15;23.05;;;21.08;;
48588;SDS011;34369;51.174;6.738;2022-10-19T09:27:32;23.95;;;21.30;;
48588;SDS011;34369;51.174;6.738;2022-10-19T09:35:03;23.15;;;20.88;;
48588;SDS011;34369;51.174;6.738;2022-10-19T09:38:53;21.90;;;19.90;;
48588;SDS011;34369;51.174;6.738;2022-10-19T12:39:33;16.92;;;15.52;;
48588;SDS011;34369;51.174;6.738;2022-10-19T14:52:08;21.63;;;19.92;;
48588;SDS011;34369;51.174;6.738;2022-10-19T14:55:15;21.55;;;19.85;;
48588;SDS011;34369;51.174;6.738;2022-10-19T15:36:15;21.42;;;19.63;;
48588;SDS011;34369;51.174;6.738;2022-10-19T17:01:54;23.88;;;22.02;;
48588;SDS011;34369;51.174;6.738;2022-10-19T17:08:27;23.92;;;22.20;;
48588;SDS011;34369;51.174;6.738;2022-10-19T17:11:11;24.98;;;23.17;;
48588;SDS011;34369;51.174;6.738;2022-10-19T17:14:07;24.45;;;22.58;;
48588;SDS011;34369;51.174;6.738;2022-10-19T17:52:22;26.30;;;24.30;;
48588;SDS011;34369;51.174;6.738;2022-10-19T17:55:26;26.27;;;24.15;;
48588;SDS011;34369;51.174;6.738;2022-10-19T17:58:25;26.45;;;24.55;;
48588;SDS011;34369;51.174;6.738;2022-10-19T18:01:20;25.35;;;23.58;;
48588;SDS011;34369;51.174;6.738;2022-10-19T18:04:25;25.50;;;23.60;;
48588;SDS011;34369;51.174;6.738;2022-10-19T18:11:15;26.85;;;24.65;;
48588;SDS011;34369;51.174;6.738;2022-10-19T18:14:31;24.27;;;22.50;;
48588;SDS011;34369;51.174;6.738;2022-10-19T18:21:34;26.00;;;24.15;;
48588;SDS011;34369;51.174;6.738;2022-10-19T18:44:41;27.92;;;25.83;;
48588;SDS011;34369;51.174;6.738;2022-10-19T18:54:17;26.23;;;24.20;;
48588;SDS011;34369;51.174;6.738;2022-10-19T18:57:32;27.00;;;24.70;;
48588;SDS011;34369;51.174;6.738;2022-10-19T19:28:51;26.38;;;24.35;;
48588;SDS011;34369;51.174;6.738;2022-10-19T19:32:12;26.60;;;24.57;;
48588;SDS011;34369;51.174;6.738;2022-10-19T19:35:42;28.27;;;25.95;;
48588;SDS011;34369;51.174;6.738;2022-10-19T19:42:08;28.43;;;26.43;;
48588;SDS011;34369;51.174;6.738;2022-10-19T19:45:34;28.23;;;26.13;;
48588;SDS011;34369;51.174;6.738;2022-10-19T19:59:35;29.10;;;26.97;;
48588;SDS011;34369;51.174;6.738;2022-10-19T20:14:23;27.77;;;25.70;;
48588;SDS011;34369;51.174;6.738;2022-10-19T20:17:40;28.17;;;26.07;;
48588;SDS011;34369;51.174;6.738;2022-10-19T20:20:29;28.15;;;26.02;;
48588;SDS011;34369;51.174;6.738;2022-10-19T20:23:09;28.73;;;26.73;;
48588;SDS011;34369;51.174;6.738;2022-10-19T20:25:51;28.77;;;26.73;;
48588;SDS011;34369;51.174;6.738;2022-10-19T21:01:22;28.43;;;26.13;;
48588;SDS011;34369;51.174;6.738;2022-10-19T21:04:52;27.75;;;25.42;;
48588;SDS011;34369;51.174;6.738;2022-10-19T21:07:37;29.20;;;26.97;;
48588;SDS011;34369;51.174;6.738;2022-10-19T21:13:45;29.63;;;27.52;;
48588;SDS011;34369;51.174;6.738;2022-10-19T21:24:01;28.93;;;26.63;;
48588;SDS011;34369;51.174;6.738;2022-10-19T21:26:52;28.23;;;26.13;;
48588;SDS011;34369;51.174;6.738;2022-10-19T21:41:58;28.70;;;26.60;;
48588;SDS011;34369;51.174;6.738;2022-10-19T21:52:42;30.50;;;28.33;;
48588;SDS011;34369;51.174;6.738;2022-10-19T22:36:38;31.00;;;28.70;;
48588;SDS011;34369;51.174;6.738;2022-10-19T22:44:09;32.53;;;29.30;;
48588;SDS011;34369;51.174;6.738;2022-10-19T23:02:44;31.40;;;29.10;;
48588;SDS011;34369;51.174;6.738;2022-10-19T23:08:48;31.23;;;28.83;;
